createdAt,value
2023-03-07T00:00:12.788Z,0.69
2023-03-07T00:02:41.731Z,0.69
2023-03-07T00:05:10.373Z,0.68
2023-03-07T00:07:40.194Z,0.68
2023-03-07T00:10:09.157Z,0.64
2023-03-07T00:12:37.367Z,0.64
2023-03-07T00:15:05.763Z,0.60
2023-03-07T00:17:33.905Z,0.58
2023-03-07T00:20:02.047Z,0.54
2023-03-07T00:22:31.089Z,0.51
2023-03-07T00:25:01.063Z,0.46
2023-03-07T00:27:30.788Z,0.44
2023-03-07T00:29:58.898Z,0.40
2023-03-07T00:32:27.548Z,0.39
2023-03-07T00:34:55.851Z,0.27
2023-03-07T00:37:23.922Z,0.24
2023-03-07T00:39:52.273Z,0.17
2023-03-07T00:42:22.122Z,0.16
2023-03-07T00:44:50.534Z,0.19
2023-03-07T00:47:19.000Z,0.13
2023-03-07T00:49:47.653Z,0.10
2023-03-07T00:52:15.914Z,0.09
2023-03-07T00:54:44.092Z,0.11
2023-03-07T00:57:12.547Z,0.11
2023-03-07T00:59:42.501Z,0.12
2023-03-07T01:02:10.800Z,0.15
2023-03-07T01:04:38.998Z,0.17
2023-03-07T01:07:07.050Z,0.19
2023-03-07T01:09:35.323Z,0.17
2023-03-07T01:12:07.370Z,0.22
2023-03-07T01:14:35.538Z,0.21
2023-03-07T01:17:05.240Z,0.23
2023-03-07T01:19:33.402Z,0.31
2023-03-07T01:22:02.960Z,0.36
2023-03-07T01:24:31.228Z,0.38
2023-03-07T01:27:00.345Z,0.41
2023-03-07T01:29:28.554Z,0.42
2023-03-07T01:31:56.810Z,0.44
2023-03-07T01:34:27.138Z,0.46
2023-03-07T01:36:55.439Z,0.49
2023-03-07T01:39:23.867Z,0.53
2023-03-07T01:42:02.572Z,0.57
2023-03-07T01:44:31.542Z,0.62
2023-03-07T01:47:00.927Z,0.64
2023-03-07T01:49:40.388Z,0.67
2023-03-07T01:52:10.389Z,0.70
2023-03-07T01:54:49.067Z,0.72
2023-03-07T01:57:20.763Z,0.75
2023-03-07T01:59:50.938Z,0.76
2023-03-07T02:02:22.809Z,0.73
2023-03-07T02:04:55.000Z,0.77
2023-03-07T02:07:26.217Z,0.75
2023-03-07T02:09:54.876Z,0.73
2023-03-07T02:12:23.398Z,0.75
2023-03-07T02:14:52.690Z,0.77
2023-03-07T02:17:21.445Z,0.75
2023-03-07T02:19:56.913Z,0.77
2023-03-07T02:22:26.037Z,0.77
2023-03-07T02:24:57.269Z,0.78
2023-03-07T02:27:27.630Z,0.78
2023-03-07T02:29:55.881Z,0.78
2023-03-07T02:32:24.310Z,0.78
2023-03-07T02:34:52.557Z,0.76
2023-03-07T02:37:26.898Z,0.75
2023-03-07T02:39:57.618Z,0.75
2023-03-07T02:42:29.797Z,0.73
2023-03-07T02:45:11.746Z,0.72
2023-03-07T02:47:42.752Z,0.72
2023-03-07T02:50:13.133Z,0.69
2023-03-07T02:52:43.519Z,0.69
2023-03-07T02:55:12.936Z,0.70
2023-03-07T02:57:49.063Z,0.70
2023-03-07T03:00:18.033Z,0.71
2023-03-07T03:02:46.153Z,0.68
2023-03-07T03:05:14.482Z,0.68
2023-03-07T03:07:42.532Z,0.69
2023-03-07T03:10:11.385Z,0.67
2023-03-07T03:12:39.822Z,0.61
2023-03-07T03:15:11.381Z,0.61
2023-03-07T03:17:39.552Z,0.61
2023-03-07T03:20:11.765Z,0.60
2023-03-07T03:22:39.902Z,0.57
2023-03-07T03:25:10.064Z,0.56
2023-03-07T03:27:40.416Z,0.54
2023-03-07T03:30:14.419Z,0.54
2023-03-07T03:32:43.810Z,0.56
2023-03-07T03:35:15.018Z,0.54
2023-03-07T03:37:43.936Z,0.51
2023-03-07T03:40:17.488Z,0.50
2023-03-07T03:42:48.551Z,0.49
2023-03-07T03:45:20.773Z,0.48
2023-03-07T03:47:50.579Z,0.47
2023-03-07T03:50:19.082Z,0.47
2023-03-07T03:52:47.214Z,0.47
2023-03-07T03:55:15.782Z,0.45
2023-03-07T03:57:43.857Z,0.43
2023-03-07T04:00:14.912Z,0.43
2023-03-07T04:02:45.563Z,0.41
2023-03-07T04:05:17.340Z,0.38
2023-03-07T04:07:45.827Z,0.38
2023-03-07T04:10:14.017Z,0.38
2023-03-07T04:12:42.365Z,0.37
2023-03-07T04:15:10.854Z,0.37
2023-03-07T04:17:39.699Z,0.33
2023-03-07T04:20:17.679Z,0.29
2023-03-07T04:22:48.052Z,0.26
2023-03-07T04:25:16.093Z,0.23
2023-03-07T04:27:44.649Z,0.21
2023-03-07T04:30:13.238Z,0.16
2023-03-07T04:32:42.774Z,0.13
2023-03-07T04:35:12.349Z,0.10
2023-03-07T04:37:40.816Z,0.06
2023-03-07T04:40:09.508Z,0.03
2023-03-07T04:42:37.984Z,-0.04
2023-03-07T04:45:06.562Z,-0.07
2023-03-07T04:47:34.725Z,-0.11
2023-03-07T04:50:03.682Z,-0.18
2023-03-07T04:52:35.249Z,-0.22
2023-03-07T04:55:03.795Z,-0.24
2023-03-07T04:57:32.098Z,-0.25
2023-03-07T05:00:00.464Z,-0.26
2023-03-07T05:02:29.531Z,-0.34
2023-03-07T05:04:58.645Z,-0.34
2023-03-07T05:07:26.803Z,-0.42
2023-03-07T05:09:56.484Z,-0.44
2023-03-07T05:12:25.002Z,-0.42
2023-03-07T05:14:53.966Z,-0.47
2023-03-07T05:17:22.680Z,-0.48
2023-03-07T05:19:50.793Z,-0.54
2023-03-07T05:22:19.542Z,-0.58
2023-03-07T05:24:47.690Z,-0.57
2023-03-07T05:27:17.687Z,-0.59
2023-03-07T05:29:45.818Z,-0.61
2023-03-07T05:32:13.867Z,-0.64
2023-03-07T05:34:42.069Z,-0.69
2023-03-07T05:37:10.758Z,-0.72
2023-03-07T05:39:39.093Z,-0.71
2023-03-07T05:42:07.681Z,-0.76
2023-03-07T05:44:39.213Z,-0.79
2023-03-07T05:47:07.634Z,-0.78
2023-03-07T05:49:37.034Z,-0.80
2023-03-07T05:52:05.700Z,-0.81
2023-03-07T05:54:34.002Z,-0.83
2023-03-07T05:57:02.748Z,-0.87
2023-03-07T05:59:30.788Z,-0.88
2023-03-07T06:02:00.321Z,-0.88
2023-03-07T06:04:28.547Z,-0.93
2023-03-07T06:06:56.581Z,-0.92
2023-03-07T06:09:26.146Z,-0.88
2023-03-07T06:11:56.303Z,-0.94
2023-03-07T06:14:24.909Z,-0.91
2023-03-07T06:16:53.048Z,-0.95
2023-03-07T06:19:22.885Z,-0.99
2023-03-07T06:21:52.247Z,-0.99
2023-03-07T06:24:21.079Z,-0.98
2023-03-07T06:26:49.262Z,-0.97
2023-03-07T06:29:20.668Z,-0.97
2023-03-07T06:31:48.820Z,-0.95
2023-03-07T06:34:17.226Z,-0.97
2023-03-07T06:36:49.085Z,-0.97
2023-03-07T06:39:21.294Z,-0.97
2023-03-07T06:41:52.358Z,-0.99
2023-03-07T06:44:20.440Z,-0.96
2023-03-07T06:46:48.803Z,-0.95
2023-03-07T06:49:20.066Z,-0.96
2023-03-07T06:51:51.290Z,-0.97
2023-03-07T06:54:19.588Z,-0.98
2023-03-07T06:56:48.053Z,-0.96
2023-03-07T06:59:20.856Z,-0.95
2023-03-07T07:01:49.442Z,-0.95
2023-03-07T07:04:19.819Z,-0.95
2023-03-07T07:06:48.944Z,-1.08
2023-03-07T07:09:19.434Z,-1.03
2023-03-07T07:11:47.771Z,-1.03
2023-03-07T07:14:15.951Z,-1.02
2023-03-07T07:16:44.271Z,-1.02
2023-03-07T07:19:12.421Z,-1.02
2023-03-07T07:21:40.564Z,-0.99
2023-03-07T07:24:08.800Z,-0.97
2023-03-07T07:26:38.621Z,-0.96
2023-03-07T07:29:06.831Z,-0.92
2023-03-07T07:31:34.953Z,-0.90
2023-03-07T07:34:04.009Z,-0.89
2023-03-07T07:36:34.472Z,-0.85
2023-03-07T07:39:04.281Z,-0.92
2023-03-07T07:41:33.297Z,-0.91
2023-03-07T07:44:03.171Z,-0.88
2023-03-07T07:46:38.984Z,-0.88
2023-03-07T07:49:08.973Z,-0.89
2023-03-07T07:51:37.521Z,-0.89
2023-03-07T07:54:05.783Z,-0.87
2023-03-07T07:56:34.325Z,-0.88
2023-03-07T07:59:04.109Z,-0.83
2023-03-07T08:01:32.121Z,-0.88
2023-03-07T08:04:00.229Z,-0.83
2023-03-07T08:06:29.162Z,-0.81
2023-03-07T08:08:57.264Z,-0.77
2023-03-07T08:11:25.737Z,-0.72
2023-03-07T08:13:54.344Z,-0.68
2023-03-07T08:16:24.310Z,-0.64
2023-03-07T08:18:53.448Z,-0.62
2023-03-07T08:21:21.791Z,-0.57
2023-03-07T08:23:49.898Z,-0.50
2023-03-07T08:26:18.922Z,-0.46
2023-03-07T08:28:48.015Z,-0.46
2023-03-07T08:31:17.134Z,-0.44
2023-03-07T08:33:47.312Z,-0.40
2023-03-07T08:36:15.845Z,-0.38
2023-03-07T08:38:44.093Z,-0.39
2023-03-07T08:41:12.389Z,-0.33
2023-03-07T08:43:40.578Z,-0.25
2023-03-07T08:46:09.197Z,-0.13
2023-03-07T08:48:37.248Z,-0.04
2023-03-07T08:51:08.154Z,-0.04
2023-03-07T08:53:36.197Z,0.10
2023-03-07T08:56:07.470Z,0.11
2023-03-07T08:58:35.804Z,0.25
2023-03-07T09:01:05.048Z,0.38
2023-03-07T09:03:33.421Z,0.61
2023-03-07T09:06:02.095Z,0.75
2023-03-07T09:08:31.647Z,0.85
2023-03-07T09:11:00.570Z,0.94
2023-03-07T09:13:28.605Z,0.96
2023-03-07T09:15:56.843Z,0.99
2023-03-07T09:18:24.872Z,0.99
2023-03-07T09:20:52.957Z,1.00
2023-03-07T09:23:21.074Z,1.05
2023-03-07T09:25:50.931Z,0.95
2023-03-07T09:28:19.085Z,0.95
2023-03-07T09:30:47.712Z,0.89
2023-03-07T09:33:15.857Z,0.81
2023-03-07T09:35:44.199Z,0.76
2023-03-07T09:38:12.294Z,0.76
2023-03-07T09:40:40.862Z,0.68
2023-03-07T09:43:16.673Z,0.79
2023-03-07T09:46:01.479Z,0.91
2023-03-07T09:48:51.390Z,0.93
2023-03-07T09:51:22.615Z,0.91
2023-03-07T09:53:54.183Z,0.80
2023-03-07T09:56:25.375Z,0.92
2023-03-07T09:59:02.554Z,1.01
2023-03-07T10:01:34.362Z,1.06
2023-03-07T10:04:04.635Z,1.03
2023-03-07T10:06:35.383Z,1.15
2023-03-07T10:09:05.399Z,1.31
2023-03-07T10:11:45.756Z,1.27
2023-03-07T10:14:21.779Z,1.40
2023-03-07T10:16:52.264Z,1.54
2023-03-07T10:19:25.009Z,1.63
2023-03-07T10:22:00.313Z,1.67
2023-03-07T10:24:40.510Z,1.72
2023-03-07T10:27:09.859Z,2.02
2023-03-07T10:29:44.094Z,2.19
2023-03-07T10:32:22.957Z,2.44
2023-03-07T10:34:56.869Z,2.72
2023-03-07T10:37:30.444Z,3.31
2023-03-07T10:40:04.478Z,3.78
2023-03-07T10:42:36.559Z,4.06
2023-03-07T10:45:06.759Z,4.22
2023-03-07T10:47:35.109Z,4.54
2023-03-07T10:50:09.455Z,4.83
2023-03-07T10:52:41.694Z,5.03
2023-03-07T10:55:34.350Z,5.00
2023-03-07T10:58:13.766Z,5.02
2023-03-07T11:00:44.521Z,5.45
2023-03-07T11:03:27.189Z,5.96
2023-03-07T11:05:55.866Z,6.83
2023-03-07T11:08:28.412Z,7.47
2023-03-07T11:10:56.760Z,7.32
2023-03-07T11:13:25.654Z,7.69
2023-03-07T11:16:11.384Z,7.98
2023-03-07T11:18:42.209Z,8.40
2023-03-07T11:21:27.140Z,8.86
2023-03-07T11:23:59.542Z,8.95
2023-03-07T11:26:29.869Z,9.10
2023-03-07T11:29:05.688Z,9.60
2023-03-07T11:31:36.764Z,9.87
2023-03-07T11:34:08.880Z,9.40
2023-03-07T11:36:38.210Z,9.26
2023-03-07T11:39:08.867Z,8.80
2023-03-07T11:41:37.435Z,8.85
2023-03-07T11:44:16.974Z,8.86
2023-03-07T11:46:54.584Z,8.44
2023-03-07T11:49:27.884Z,7.93
2023-03-07T11:52:02.256Z,8.31
2023-03-07T11:54:36.239Z,7.68
2023-03-07T11:57:09.372Z,7.68
2023-03-07T11:59:50.295Z,7.72
2023-03-07T12:02:30.714Z,7.23
2023-03-07T12:05:07.169Z,6.22
2023-03-07T12:07:45.833Z,5.85
2023-03-07T12:10:19.726Z,6.24
2023-03-07T12:12:54.948Z,6.56
2023-03-07T12:15:28.417Z,7.07
2023-03-07T12:18:05.356Z,7.53
2023-03-07T12:20:39.077Z,7.77
2023-03-07T12:23:12.076Z,8.00
2023-03-07T12:25:43.335Z,7.95
2023-03-07T12:28:15.000Z,8.29
2023-03-07T12:30:50.546Z,8.12
2023-03-07T12:33:24.280Z,8.46
2023-03-07T12:35:56.719Z,8.17
2023-03-07T12:38:30.369Z,8.09
2023-03-07T12:41:01.585Z,7.70
2023-03-07T12:43:34.826Z,7.67
2023-03-07T12:46:11.045Z,7.95
2023-03-07T12:48:42.906Z,8.13
2023-03-07T12:51:16.297Z,8.20
2023-03-07T12:53:48.293Z,8.38
2023-03-07T12:56:19.073Z,7.93
2023-03-07T12:58:50.324Z,7.99
2023-03-07T13:01:20.843Z,7.96
2023-03-07T13:03:55.066Z,7.89
2023-03-07T13:06:24.406Z,7.98
2023-03-07T13:08:54.643Z,8.07
2023-03-07T13:11:24.003Z,7.66
2023-03-07T13:13:53.944Z,7.16
2023-03-07T13:16:41.692Z,6.88
2023-03-07T13:19:40.433Z,6.66
2023-03-07T13:22:41.428Z,6.46
2023-03-07T13:25:29.231Z,6.22
2023-03-07T13:27:58.217Z,6.24
2023-03-07T13:30:26.872Z,6.38
2023-03-07T13:32:56.850Z,6.29
2023-03-07T13:35:46.496Z,6.19
2023-03-07T13:38:31.736Z,6.13
2023-03-07T13:41:00.483Z,6.43
2023-03-07T13:43:56.852Z,6.24
2023-03-07T13:46:43.044Z,6.39
2023-03-07T13:49:11.319Z,6.42
2023-03-07T13:51:39.979Z,6.53
2023-03-07T13:54:12.915Z,6.44
2023-03-07T13:56:42.911Z,6.19
2023-03-07T13:59:20.501Z,6.01
2023-03-07T14:01:51.071Z,5.63
2023-03-07T14:04:37.096Z,5.41
2023-03-07T14:07:13.182Z,5.60
2023-03-07T14:09:45.199Z,5.54
2023-03-07T14:12:17.661Z,5.71
2023-03-07T14:14:50.082Z,5.92
2023-03-07T14:17:34.013Z,6.29
2023-03-07T14:20:11.596Z,6.43
2023-03-07T14:22:48.289Z,6.29
2023-03-07T14:25:19.855Z,6.30
2023-03-07T14:27:56.494Z,6.20
2023-03-07T14:30:25.300Z,6.41
2023-03-07T14:32:53.459Z,6.66
2023-03-07T14:35:36.335Z,6.63
2023-03-07T14:38:08.150Z,6.31
2023-03-07T14:40:43.438Z,6.00
2023-03-07T14:43:21.067Z,5.87
2023-03-07T14:45:53.454Z,5.81
2023-03-07T14:48:34.411Z,5.93
2023-03-07T14:51:06.690Z,5.82
2023-03-07T14:53:35.808Z,5.75
2023-03-07T14:56:07.855Z,5.71
2023-03-07T14:58:37.258Z,5.77
2023-03-07T15:01:06.832Z,5.71
2023-03-07T15:03:35.028Z,5.65
2023-03-07T15:06:03.579Z,5.63
2023-03-07T15:08:33.423Z,5.68
2023-03-07T15:11:06.999Z,5.81
2023-03-07T15:13:39.780Z,5.77
2023-03-07T15:16:11.788Z,5.69
2023-03-07T15:18:42.339Z,5.80
2023-03-07T15:21:15.365Z,5.69
2023-03-07T15:23:43.390Z,5.50
2023-03-07T15:26:21.266Z,5.28
2023-03-07T15:28:51.532Z,5.16
2023-03-07T15:31:23.623Z,4.98
2023-03-07T15:33:51.819Z,4.92
2023-03-07T15:36:25.849Z,4.87
2023-03-07T15:38:54.931Z,5.00
2023-03-07T15:41:26.849Z,5.10
2023-03-07T15:44:06.725Z,5.14
2023-03-07T15:46:36.115Z,5.17
2023-03-07T15:49:04.651Z,5.09
2023-03-07T15:51:36.423Z,4.95
2023-03-07T15:54:11.584Z,4.71
2023-03-07T15:56:41.524Z,4.64
2023-03-07T15:59:23.380Z,4.58
2023-03-07T16:01:51.780Z,4.42
2023-03-07T16:04:29.557Z,4.45
2023-03-07T16:06:57.882Z,4.47
2023-03-07T16:09:26.214Z,4.49
2023-03-07T16:11:54.657Z,4.53
2023-03-07T16:14:26.291Z,4.60
2023-03-07T16:16:55.097Z,4.67
2023-03-07T16:19:23.276Z,4.75
2023-03-07T16:21:51.662Z,4.67
2023-03-07T16:24:20.245Z,4.66
2023-03-07T16:26:48.646Z,4.65
2023-03-07T16:29:17.389Z,4.61
2023-03-07T16:31:47.311Z,4.50
2023-03-07T16:34:16.619Z,4.58
2023-03-07T16:36:45.185Z,4.54
2023-03-07T16:39:13.700Z,4.43
2023-03-07T16:41:44.595Z,4.37
2023-03-07T16:44:16.391Z,4.31
2023-03-07T16:46:45.116Z,4.27
2023-03-07T16:49:18.269Z,4.19
2023-03-07T16:51:53.288Z,4.13
2023-03-07T16:54:27.840Z,4.14
2023-03-07T16:56:58.359Z,4.10
2023-03-07T16:59:30.536Z,4.15
2023-03-07T17:01:59.073Z,4.11
2023-03-07T17:04:28.748Z,4.09
2023-03-07T17:07:04.450Z,4.00
2023-03-07T17:09:33.517Z,3.88
2023-03-07T17:12:01.607Z,3.79
2023-03-07T17:14:29.647Z,3.71
2023-03-07T17:16:59.368Z,3.63
2023-03-07T17:19:29.619Z,3.54
2023-03-07T17:21:58.660Z,3.43
2023-03-07T17:24:27.025Z,3.24
2023-03-07T17:26:56.085Z,3.10
2023-03-07T17:29:27.917Z,2.99
2023-03-07T17:31:56.342Z,2.86
2023-03-07T17:34:25.849Z,2.74
2023-03-07T17:36:55.484Z,2.62
2023-03-07T17:39:23.711Z,2.53
2023-03-07T17:41:51.790Z,2.44
2023-03-07T17:44:19.947Z,2.34
2023-03-07T17:46:48.015Z,2.20
2023-03-07T17:49:16.456Z,2.15
2023-03-07T17:51:44.550Z,2.06
2023-03-07T17:54:14.140Z,1.97
2023-03-07T17:56:42.215Z,1.88
2023-03-07T17:59:10.272Z,1.82
2023-03-07T18:01:38.470Z,1.76
2023-03-07T18:04:07.319Z,1.67
2023-03-07T18:06:36.793Z,1.55
2023-03-07T18:09:05.405Z,1.40
2023-03-07T18:11:35.302Z,1.30
2023-03-07T18:14:03.896Z,1.16
2023-03-07T18:16:32.524Z,0.97
2023-03-07T18:19:03.499Z,0.88
2023-03-07T18:21:32.841Z,0.75
2023-03-07T18:24:01.213Z,0.62
2023-03-07T18:26:29.646Z,0.52
2023-03-07T18:28:59.470Z,0.44
2023-03-07T18:31:28.783Z,0.33
2023-03-07T18:33:57.369Z,0.29
2023-03-07T18:36:26.245Z,0.23
2023-03-07T18:38:54.596Z,0.18
2023-03-07T18:41:23.942Z,0.10
2023-03-07T18:43:53.680Z,0.05
2023-03-07T18:46:24.110Z,0.03
2023-03-07T18:48:52.480Z,0.02
2023-03-07T18:51:25.027Z,-0.02
2023-03-07T18:53:53.788Z,0.00
2023-03-07T18:56:22.162Z,-0.04
2023-03-07T18:58:50.226Z,-0.03
2023-03-07T19:01:19.077Z,-0.02
2023-03-07T19:03:49.625Z,0.01
2023-03-07T19:06:18.756Z,0.11
2023-03-07T19:08:47.115Z,0.25
2023-03-07T19:11:15.627Z,0.29
2023-03-07T19:13:43.822Z,0.27
2023-03-07T19:16:13.479Z,0.26
2023-03-07T19:18:41.892Z,0.31
2023-03-07T19:21:12.099Z,0.29
2023-03-07T19:23:40.296Z,0.34
2023-03-07T19:26:09.507Z,0.40
2023-03-07T19:28:37.960Z,0.35
2023-03-07T19:31:09.868Z,0.37
2023-03-07T19:33:39.130Z,0.39
2023-03-07T19:36:09.280Z,0.38
2023-03-07T19:38:39.379Z,0.39
2023-03-07T19:41:11.038Z,0.40
2023-03-07T19:43:39.151Z,0.41
2023-03-07T19:46:07.884Z,0.43
2023-03-07T19:48:36.127Z,0.44
2023-03-07T19:51:04.869Z,0.42
2023-03-07T19:53:33.109Z,0.47
2023-03-07T19:56:10.948Z,0.49
2023-03-07T19:58:39.033Z,0.51
2023-03-07T20:01:08.047Z,0.53
2023-03-07T20:03:36.382Z,0.60
2023-03-07T20:06:05.078Z,0.59
2023-03-07T20:08:34.017Z,0.66
2023-03-07T20:11:11.119Z,0.68
2023-03-07T20:13:39.835Z,0.73
2023-03-07T20:16:10.501Z,0.74
2023-03-07T20:18:39.161Z,0.74
2023-03-07T20:21:08.136Z,0.75
2023-03-07T20:23:36.359Z,0.76
2023-03-07T20:26:05.858Z,0.72
2023-03-07T20:28:35.621Z,0.73
2023-03-07T20:31:04.246Z,0.73
2023-03-07T20:33:32.552Z,0.69
2023-03-07T20:36:01.519Z,0.70
2023-03-07T20:38:29.981Z,0.70
2023-03-07T20:41:02.529Z,0.73
2023-03-07T20:43:31.212Z,0.72
2023-03-07T20:46:04.291Z,0.73
2023-03-07T20:48:32.633Z,0.72
2023-03-07T20:51:05.355Z,0.70
2023-03-07T20:53:33.696Z,0.70
2023-03-07T20:56:02.905Z,0.68
2023-03-07T20:58:31.252Z,0.62
2023-03-07T21:00:59.719Z,0.65
2023-03-07T21:03:30.154Z,0.65
2023-03-07T21:05:59.519Z,0.62
2023-03-07T21:08:28.200Z,0.65
2023-03-07T21:11:00.148Z,0.63
2023-03-07T21:13:28.396Z,0.62
2023-03-07T21:15:57.473Z,0.62
2023-03-07T21:18:25.679Z,0.58
2023-03-07T21:20:55.395Z,0.56
2023-03-07T21:23:23.528Z,0.55
2023-03-07T21:25:51.595Z,0.54
2023-03-07T21:28:19.965Z,0.52
2023-03-07T21:30:49.650Z,0.49
2023-03-07T21:33:17.927Z,0.48
2023-03-07T21:35:46.649Z,0.46
2023-03-07T21:38:16.223Z,0.44
2023-03-07T21:40:44.308Z,0.40
2023-03-07T21:43:12.382Z,0.40
2023-03-07T21:45:40.556Z,0.36
2023-03-07T21:48:09.116Z,0.36
2023-03-07T21:50:38.050Z,0.34
2023-03-07T21:53:06.319Z,0.33
2023-03-07T21:55:35.736Z,0.33
2023-03-07T21:58:03.751Z,0.35
2023-03-07T22:00:32.443Z,0.32
2023-03-07T22:03:00.963Z,0.31
2023-03-07T22:05:29.000Z,0.27
2023-03-07T22:07:57.149Z,0.29
2023-03-07T22:10:25.485Z,0.26
2023-03-07T22:12:55.341Z,0.21
2023-03-07T22:15:23.678Z,0.17
2023-03-07T22:17:52.231Z,0.21
2023-03-07T22:20:20.401Z,0.21
2023-03-07T22:22:48.574Z,0.21
2023-03-07T22:25:16.817Z,0.22
2023-03-07T22:27:45.519Z,0.16
2023-03-07T22:30:15.490Z,0.12
2023-03-07T22:32:45.412Z,0.08
2023-03-07T22:35:13.500Z,0.09
2023-03-07T22:37:41.916Z,0.09
2023-03-07T22:40:10.625Z,0.09
2023-03-07T22:42:38.802Z,0.11
2023-03-07T22:45:07.863Z,0.10
2023-03-07T22:47:37.543Z,0.07
2023-03-07T22:50:05.957Z,0.09
2023-03-07T22:52:33.986Z,0.08
2023-03-07T22:55:02.124Z,0.03
2023-03-07T22:57:31.756Z,0.04
2023-03-07T23:00:00.124Z,0.01
2023-03-07T23:02:28.299Z,-0.05
2023-03-07T23:04:57.782Z,-0.05
2023-03-07T23:07:26.501Z,-0.05
2023-03-07T23:09:54.635Z,-0.09
2023-03-07T23:12:22.692Z,-0.05
2023-03-07T23:14:51.231Z,-0.06
2023-03-07T23:17:19.422Z,-0.07
2023-03-07T23:19:47.705Z,-0.04
2023-03-07T23:22:17.196Z,-0.04
2023-03-07T23:24:45.224Z,-0.08
2023-03-07T23:27:13.412Z,-0.06
2023-03-07T23:29:41.580Z,-0.12
2023-03-07T23:32:10.059Z,-0.11
2023-03-07T23:34:38.400Z,-0.15
2023-03-07T23:37:06.505Z,-0.11
2023-03-07T23:39:36.005Z,-0.15
2023-03-07T23:42:04.076Z,-0.16
2023-03-07T23:44:32.206Z,-0.21
2023-03-07T23:47:00.399Z,-0.20
2023-03-07T23:49:28.639Z,-0.21
2023-03-07T23:51:56.687Z,-0.22
2023-03-07T23:54:24.860Z,-0.23
2023-03-07T23:56:54.578Z,-0.29
2023-03-07T23:59:22.848Z,-0.30
